Time;durP1;ratioP1;P1;durP2;ratioP2;P2;SDS_P1;SDS_P2;PMS_P1;PMS_P2;Temp;Humidity;BMP_temperature;BMP_pressure;BME280_temperature;BME280_humidity;BME280_pressure;Samples;Min_cycle;Max_cycle;Signal;HPM_P1;HPM_P2
2022/07/28 00:02:01;;;;;;;7.32;5.78;;;;;;;23.29;64.44;94454.84;5011673;28;20209;-77
2022/07/28 00:04:29;;;;;;;7.80;5.57;;;;;;;23.16;63.28;94462.88;5011211;28;20241;-78
2022/07/28 00:06:56;;;;;;;7.28;5.35;;;;;;;23.11;63.26;94474.38;4998341;28;20235;-75
2022/07/28 00:09:22;;;;;;;6.13;4.32;;;;;;;22.98;66.54;94478.84;4998364;28;20206;-75
2022/07/28 00:11:49;;;;;;;7.32;4.78;;;;;;;22.86;68.01;94499.50;5003925;28;20210;-75
2022/07/28 00:14:17;;;;;;;9.82;5.75;;;;;;;22.74;69.33;94496.44;5004837;28;20205;-76
2022/07/28 00:16:44;;;;;;;8.05;5.05;;;;;;;22.68;67.93;94496.91;4999470;28;20255;-76
2022/07/28 00:19:11;;;;;;;8.63;5.85;;;;;;;22.61;68.32;94508.00;4997978;28;20210;-76
2022/07/28 00:21:39;;;;;;;11.43;5.80;;;;;;;22.54;69.10;94523.84;5003115;28;20260;-76
2022/07/28 00:24:07;;;;;;;8.52;5.75;;;;;;;22.29;70.86;94521.25;5006054;28;20276;-75
2022/07/28 00:26:34;;;;;;;6.60;3.40;;;;;;;21.64;74.98;94518.03;5002324;28;20634;-75
2022/07/28 00:29:01;;;;;;;9.63;2.97;;;;;;;20.87;77.73;94502.53;5005909;28;20672;-76
2022/07/28 00:31:28;;;;;;;9.73;5.38;;;;;;;20.52;82.68;94490.34;5002573;28;20209;-74
2022/07/28 00:33:54;;;;;;;7.63;4.55;;;;;;;20.20;84.06;94489.56;5004437;28;20541;-74
2022/07/28 00:36:21;;;;;;;5.63;3.40;;;;;;;20.05;85.06;94499.75;4999518;28;20838;-74
2022/07/28 00:38:50;;;;;;;8.43;4.75;;;;;;;20.02;86.64;94483.25;5010387;28;20236;-76
2022/07/28 00:41:19;;;;;;;8.15;4.93;;;;;;;19.99;87.12;94467.53;5011014;28;20668;-76
2022/07/28 00:43:47;;;;;;;13.07;5.72;;;;;;;19.86;88.97;94454.16;5016053;28;20601;-76
2022/07/28 00:46:17;;;;;;;10.35;4.85;;;;;;;19.79;90.72;94476.16;5010482;28;20201;-76
2022/07/28 00:48:46;;;;;;;10.48;4.60;;;;;;;19.71;90.88;94480.03;4998077;28;20205;-76
2022/07/28 00:51:16;;;;;;;11.38;4.85;;;;;;;19.64;92.20;94496.53;5011278;28;20258;-78
2022/07/28 00:53:44;;;;;;;7.85;5.10;;;;;;;19.67;92.70;94517.75;4998820;28;20209;-76
2022/07/28 00:56:12;;;;;;;7.13;4.18;;;;;;;19.74;93.67;94517.75;5000797;28;20209;-77
2022/07/28 00:58:39;;;;;;;9.73;4.65;;;;;;;19.81;93.59;94528.78;5007605;28;20214;-76
2022/07/28 01:01:07;;;;;;;12.45;5.43;;;;;;;19.91;94.70;94531.94;5003193;28;20687;-77
2022/07/28 01:03:36;;;;;;;16.88;5.07;;;;;;;19.91;94.58;94529.97;4997854;28;20247;-78
2022/07/28 01:06:10;;;;;;;8.10;4.63;;;;;;;19.97;93.97;94535.88;5010470;28;20637;-78
2022/07/28 01:08:58;;;;;;;8.77;4.68;;;;;;;19.93;92.64;94535.09;4998047;28;20195;-77
2022/07/28 01:11:31;;;;;;;11.13;5.63;;;;;;;19.99;92.33;94534.31;5006973;28;20212;-77
2022/07/28 01:14:07;;;;;;;7.75;4.45;;;;;;;20.07;92.70;94533.16;5002434;28;20289;-77
2022/07/28 01:16:38;;;;;;;7.22;5.22;;;;;;;20.10;93.02;94528.81;4996638;28;20205;-77
2022/07/28 01:19:15;;;;;;;7.28;4.45;;;;;;;20.25;93.83;94530.41;4997700;28;20733;-77
2022/07/28 01:21:45;;;;;;;8.60;5.18;;;;;;;20.34;92.13;94532.81;4998477;28;20201;-78
2022/07/28 01:24:22;;;;;;;7.65;4.80;;;;;;;20.24;92.18;94523.34;5008204;28;20213;-78
2022/07/28 01:26:59;;;;;;;7.70;4.45;;;;;;;20.26;92.08;94509.19;5000061;28;20207;-77
2022/07/28 01:29:59;;;;;;;9.30;4.75;;;;;;;20.38;90.50;94495.84;4996400;28;20617;-78
2022/07/28 01:32:31;;;;;;;12.13;5.70;;;;;;;20.37;92.17;94499.78;4994320;28;20206;-77
2022/07/28 01:35:05;;;;;;;11.85;5.07;;;;;;;20.23;92.21;94508.00;5000794;28;20228;-78
2022/07/28 01:37:33;;;;;;;6.70;4.40;;;;;;;20.16;90.07;94511.56;4998279;28;20275;-77
2022/07/28 01:40:05;;;;;;;8.18;4.65;;;;;;;20.34;90.08;94495.06;5010539;28;20212;-77
2022/07/28 01:42:35;;;;;;;10.95;4.57;;;;;;;20.58;90.86;94480.53;5012226;28;20213;-77
2022/07/28 01:45:03;;;;;;;16.88;5.38;;;;;;;20.61;90.77;94491.94;5015275;28;20271;-78
2022/07/28 01:47:32;;;;;;;7.07;4.78;;;;;;;20.43;89.35;94492.72;5002596;28;20665;-77
2022/07/28 01:50:02;;;;;;;11.68;5.20;;;;;;;20.42;89.35;94491.16;5007411;28;20213;-77
2022/07/28 01:52:30;;;;;;;8.77;5.22;;;;;;;20.46;90.84;94491.16;5005529;28;20210;-79
2022/07/28 01:54:58;;;;;;;12.77;4.80;;;;;;;20.43;91.66;94497.44;5009057;28;20584;-79
2022/07/28 01:57:27;;;;;;;9.82;5.30;;;;;;;20.51;90.48;94505.28;5004632;28;20197;-77
2022/07/28 01:59:56;;;;;;;12.63;5.25;;;;;;;20.55;90.33;94506.09;5007045;28;20670;-76
2022/07/28 02:02:24;;;;;;;11.10;5.30;;;;;;;20.67;89.85;94495.84;5003383;28;20714;-77
2022/07/28 02:04:54;;;;;;;13.02;5.50;;;;;;;20.81;89.79;94506.84;5000056;28;20240;-78
2022/07/28 02:07:23;;;;;;;9.40;5.43;;;;;;;20.77;89.31;94512.38;5003787;28;20210;-77
2022/07/28 02:09:51;;;;;;;10.30;6.40;;;;;;;20.54;90.56;94506.47;5006839;28;20209;-80
2022/07/28 02:12:19;;;;;;;8.20;5.68;;;;;;;20.50;91.31;94509.22;5004303;28;20629;-79
2022/07/28 02:14:49;;;;;;;13.38;5.95;;;;;;;20.68;91.64;94509.22;4999717;28;20247;-77
2022/07/28 02:17:18;;;;;;;12.07;5.80;;;;;;;20.57;92.30;94509.22;5001721;28;20604;-78
2022/07/28 02:19:47;;;;;;;8.40;4.97;;;;;;;20.59;90.91;94506.09;5012030;28;20259;-77
2022/07/28 02:22:17;;;;;;;9.38;6.03;;;;;;;20.72;91.08;94514.72;5000932;28;20268;-77
2022/07/28 02:24:45;;;;;;;12.60;6.25;;;;;;;20.61;89.38;94508.47;5006680;28;20586;-78
2022/07/28 02:27:19;;;;;;;13.90;5.63;;;;;;;20.71;89.75;94513.16;5005929;28;20287;-78
2022/07/28 02:29:50;;;;;;;10.63;5.82;;;;;;;20.78;90.69;94524.94;4994028;28;20233;-78
2022/07/28 02:32:21;;;;;;;9.52;5.55;;;;;;;20.62;90.15;94523.78;5007188;28;20189;-78
2022/07/28 02:34:50;;;;;;;8.40;5.50;;;;;;;20.62;90.86;94529.28;5013509;28;20205;-78
2022/07/28 02:37:19;;;;;;;8.90;5.82;;;;;;;20.65;89.23;94525.72;5001409;28;20664;-78
2022/07/28 02:39:51;;;;;;;10.55;5.70;;;;;;;20.50;89.06;94516.72;5012835;28;20209;-79
2022/07/28 02:42:19;;;;;;;9.43;5.72;;;;;;;20.46;89.44;94524.19;5009263;28;20248;-78
2022/07/28 02:44:55;;;;;;;11.25;6.45;;;;;;;20.60;89.55;94517.88;5032271;28;20232;-79
2022/07/28 02:47:26;;;;;;;11.55;5.40;;;;;;;20.50;87.27;94520.22;5005856;28;20248;-78
2022/07/28 02:49:57;;;;;;;9.25;4.07;;;;;;;20.45;86.75;94522.59;5006160;28;20250;-78
2022/07/28 02:52:27;;;;;;;11.85;4.47;;;;;;;20.35;90.06;94526.91;5000725;28;20197;-78
2022/07/28 02:54:56;;;;;;;10.40;5.43;;;;;;;20.17;91.38;94520.59;4999720;28;20597;-78
2022/07/28 02:57:24;;;;;;;8.55;4.90;;;;;;;19.95;91.96;94532.75;5004211;28;20202;-78
2022/07/28 02:59:53;;;;;;;9.32;5.65;;;;;;;19.99;91.90;94528.81;5006097;28;20289;-79
2022/07/28 03:02:21;;;;;;;11.88;6.03;;;;;;;20.06;91.35;94542.59;5001564;28;20239;-78
2022/07/28 03:05:00;;;;;;;8.13;5.38;;;;;;;20.28;91.78;94546.16;4998367;28;20264;-77
2022/07/28 03:07:30;;;;;;;9.45;5.45;;;;;;;20.17;93.38;94550.84;5012216;28;20652;-77
2022/07/28 03:09:57;;;;;;;8.85;5.15;;;;;;;20.18;91.12;94549.69;4999146;28;20209;-78
2022/07/28 03:12:24;;;;;;;8.98;4.82;;;;;;;20.13;91.03;94550.03;5000753;28;20691;-78
2022/07/28 03:14:51;;;;;;;8.27;5.05;;;;;;;20.09;89.83;94549.28;5010082;28;20200;-77
2022/07/28 03:17:19;;;;;;;10.43;5.22;;;;;;;20.06;91.33;94544.53;5011696;28;20252;-78
2022/07/28 03:19:45;;;;;;;10.23;5.85;;;;;;;20.07;92.03;94540.63;4998678;28;20624;-77
2022/07/28 03:22:14;;;;;;;9.38;5.50;;;;;;;20.04;92.30;94541.41;5000311;28;20268;-77
2022/07/28 03:24:46;;;;;;;12.35;5.95;;;;;;;19.92;92.07;94522.53;5005428;28;20593;-77
2022/07/28 03:27:21;;;;;;;14.48;6.38;;;;;;;19.96;92.71;94528.78;5004439;28;20225;-77
2022/07/28 03:29:52;;;;;;;9.10;5.75;;;;;;;19.97;92.40;94524.88;4998929;28;20645;-77
2022/07/28 03:32:23;;;;;;;12.15;6.10;;;;;;;19.96;91.70;94523.28;4998205;28;20257;-76
2022/07/28 03:34:51;;;;;;;7.78;5.38;;;;;;;20.01;90.89;94525.66;5002213;28;20208;-77
2022/07/28 03:37:23;;;;;;;14.18;6.18;;;;;;;20.05;91.10;94534.72;5007428;28;20205;-76
2022/07/28 03:39:53;;;;;;;9.85;5.82;;;;;;;20.01;89.13;94531.16;5011508;28;20251;-76
2022/07/28 03:42:21;;;;;;;10.32;4.97;;;;;;;19.97;89.58;94531.16;5011809;28;20672;-76
2022/07/28 03:44:49;;;;;;;9.77;5.22;;;;;;;19.87;88.59;94521.72;5019011;28;20316;-76
2022/07/28 03:47:21;;;;;;;8.15;4.32;;;;;;;19.91;89.17;94520.94;4998650;28;20207;-77
2022/07/28 03:49:48;;;;;;;10.02;5.28;;;;;;;19.84;89.20;94508.75;4998749;28;20288;-76
2022/07/28 03:52:15;;;;;;;11.02;4.60;;;;;;;19.74;88.64;94498.50;5004375;28;20212;-76
2022/07/28 03:54:42;;;;;;;5.35;3.60;;;;;;;19.67;88.94;94493.00;5005034;28;20287;-77
2022/07/28 03:57:10;;;;;;;11.90;5.32;;;;;;;19.63;90.45;94483.97;4991830;28;20209;-77
2022/07/28 03:59:37;;;;;;;13.00;6.35;;;;;;;19.57;90.74;94480.00;5004785;28;20204;-77
2022/07/28 04:02:04;;;;;;;11.48;7.38;;;;;;;19.48;90.08;94476.81;4998909;28;20212;-78
2022/07/28 04:04:31;;;;;;;11.25;5.95;;;;;;;19.41;90.86;94465.78;4997846;28;20604;-76
2022/07/28 04:06:58;;;;;;;8.43;5.00;;;;;;;19.27;91.26;94449.28;5003559;28;20229;-77
2022/07/28 04:09:25;;;;;;;8.27;4.43;;;;;;;19.25;91.01;94452.41;5004965;28;20201;-76
2022/07/28 04:11:51;;;;;;;9.93;5.85;;;;;;;19.27;91.39;94446.53;4998620;28;20889;-76
2022/07/28 04:14:19;;;;;;;7.32;4.10;;;;;;;19.23;91.20;94437.50;4998053;28;20722;-78
2022/07/28 04:16:46;;;;;;;8.63;4.63;;;;;;;19.20;90.45;94427.28;5011260;28;20212;-75
2022/07/28 04:19:13;;;;;;;14.32;5.80;;;;;;;19.21;91.29;94423.34;4998127;28;20212;-74
2022/07/28 04:21:40;;;;;;;8.77;6.05;;;;;;;19.20;90.72;94422.56;5002910;28;20230;-76
2022/07/28 04:24:09;;;;;;;6.75;4.88;;;;;;;19.16;90.16;94406.06;5006484;28;20205;-75
2022/07/28 04:26:36;;;;;;;7.60;4.60;;;;;;;19.23;90.55;94415.53;5010961;28;20264;-75
2022/07/28 04:29:03;;;;;;;10.35;5.55;;;;;;;19.23;91.92;94437.50;5008466;28;20259;-76
2022/07/28 04:31:31;;;;;;;9.05;5.53;;;;;;;19.20;95.29;94449.25;5000537;28;20209;-75
2022/07/28 04:33:59;;;;;;;11.00;6.32;;;;;;;19.26;96.78;94483.41;4998034;28;20216;-76
2022/07/28 04:36:26;;;;;;;10.27;6.35;;;;;;;19.30;98.90;94508.91;5010846;28;20635;-76
2022/07/28 04:38:53;;;;;;;14.05;7.25;;;;;;;19.31;99.74;94522.28;5010874;28;20212;-76
2022/07/28 04:41:21;;;;;;;10.90;6.20;;;;;;;19.35;99.68;94533.28;5011079;28;20215;-76
2022/07/28 04:43:47;;;;;;;12.57;6.72;;;;;;;19.35;100.00;94538.78;5015570;28;20201;-75
2022/07/28 04:46:14;;;;;;;12.45;6.47;;;;;;;19.41;99.32;94537.22;5010677;28;20232;-76
2022/07/28 04:48:44;;;;;;;11.35;6.22;;;;;;;19.38;97.86;94532.50;4997464;28;20205;-77
2022/07/28 04:51:10;;;;;;;13.02;6.97;;;;;;;19.37;96.95;94537.22;5011045;28;20216;-75
2022/07/28 04:53:37;;;;;;;10.27;5.40;;;;;;;19.33;96.75;94538.38;5006425;28;20252;-76
2022/07/28 04:56:05;;;;;;;7.78;5.40;;;;;;;19.23;96.00;94537.16;5002045;28;20204;-76
2022/07/28 04:58:31;;;;;;;10.23;6.60;;;;;;;19.22;96.34;94532.81;5010878;28;20263;-75
2022/07/28 05:00:58;;;;;;;15.43;7.70;;;;;;;19.33;96.72;94541.13;5010868;28;20605;-75
2022/07/28 05:03:25;;;;;;;12.60;6.75;;;;;;;19.32;96.34;94534.84;4996596;28;20259;-75
2022/07/28 05:05:53;;;;;;;11.27;6.93;;;;;;;19.41;95.49;94534.47;4999641;28;20245;-75
2022/07/28 05:08:20;;;;;;;9.80;6.38;;;;;;;19.55;96.25;94537.31;5003585;28;20264;-75
2022/07/28 05:10:46;;;;;;;9.98;6.38;;;;;;;19.46;94.47;94523.91;5002301;28;20273;-76
2022/07/28 05:13:13;;;;;;;13.07;6.07;;;;;;;19.42;95.16;94511.31;5005339;28;20952;-76
2022/07/28 05:15:40;;;;;;;11.27;6.47;;;;;;;19.34;95.19;94509.72;5002377;28;20209;-76
2022/07/28 05:18:07;;;;;;;10.25;6.60;;;;;;;19.29;96.20;94513.63;4996934;28;20580;-76
2022/07/28 05:20:34;;;;;;;14.98;6.95;;;;;;;19.28;96.25;94522.25;4998810;28;20205;-75
2022/07/28 05:23:02;;;;;;;9.68;6.78;;;;;;;19.40;96.77;94541.16;5004727;28;20208;-76
2022/07/28 05:25:29;;;;;;;9.55;6.13;;;;;;;19.40;95.96;94541.94;5006098;28;20232;-76
2022/07/28 05:27:57;;;;;;;11.20;6.55;;;;;;;19.36;96.56;94549.38;5000326;28;20664;-76
2022/07/28 05:30:24;;;;;;;12.23;6.15;;;;;;;19.38;96.97;94549.00;5001182;28;20201;-77
2022/07/28 05:32:52;;;;;;;10.43;6.53;;;;;;;19.36;96.17;94551.34;5000251;28;20201;-77
2022/07/28 05:35:19;;;;;;;17.17;8.05;;;;;;;19.46;96.56;94562.38;5000797;28;20205;-77
2022/07/28 05:37:46;;;;;;;14.20;7.78;;;;;;;19.51;96.71;94575.00;5002148;28;20193;-76
2022/07/28 05:40:17;;;;;;;10.55;6.18;;;;;;;19.62;95.95;94567.59;5013521;28;20570;-76
2022/07/28 05:42:46;;;;;;;11.30;5.97;;;;;;;19.68;95.43;94549.53;5013072;28;20283;-77
2022/07/28 05:45:13;;;;;;;13.15;7.78;;;;;;;19.61;94.38;94546.75;5015504;28;20672;-76
2022/07/28 05:47:42;;;;;;;13.50;7.97;;;;;;;19.76;94.65;94553.09;5003137;28;20204;-76
2022/07/28 05:50:10;;;;;;;12.35;7.68;;;;;;;20.09;94.46;94555.53;5001072;28;20293;-76
2022/07/28 05:52:37;;;;;;;14.55;7.68;;;;;;;20.51;92.74;94545.78;5004362;28;20212;-77
2022/07/28 05:55:05;;;;;;;12.65;7.43;;;;;;;20.69;90.50;94543.03;5009508;28;20303;-76
2022/07/28 05:57:33;;;;;;;11.85;7.07;;;;;;;20.74;88.95;94535.19;5004343;28;20628;-76
2022/07/28 06:00:00;;;;;;;12.88;7.28;;;;;;;20.84;87.13;94539.09;5007007;28;20257;-77
2022/07/28 06:02:27;;;;;;;11.95;7.65;;;;;;;20.98;86.44;94550.09;5003523;28;20730;-76
2022/07/28 06:04:54;;;;;;;15.25;7.40;;;;;;;21.26;86.04;94539.06;4999727;28;20232;-75
2022/07/28 06:07:20;;;;;;;15.32;7.95;;;;;;;21.63;86.89;94530.25;5003283;28;20233;-76
2022/07/28 06:09:47;;;;;;;12.73;7.32;;;;;;;21.89;82.79;94531.72;5006735;28;20209;-76
2022/07/28 06:12:14;;;;;;;12.32;9.05;;;;;;;22.24;82.62;94529.97;5003577;28;20259;-76
2022/07/28 06:14:42;;;;;;;15.55;10.00;;;;;;;22.34;80.87;94529.88;5000324;28;20205;-76
2022/07/28 06:17:09;;;;;;;15.10;10.68;;;;;;;22.69;81.50;94523.28;5003037;28;20260;-76
2022/07/28 06:19:36;;;;;;;12.77;9.88;;;;;;;22.93;79.59;94526.28;5007902;28;20249;-75
2022/07/28 06:22:05;;;;;;;14.23;7.72;;;;;;;23.28;79.97;94530.66;5005387;28;20248;-75
2022/07/28 06:24:31;;;;;;;9.20;6.43;;;;;;;23.62;76.81;94527.97;5008577;28;20202;-75
2022/07/28 06:27:00;;;;;;;11.45;7.03;;;;;;;23.71;74.82;94519.94;5004505;28;20240;-74
2022/07/28 06:29:26;;;;;;;12.98;6.93;;;;;;;23.73;76.12;94525.84;4995246;28;20208;-75
2022/07/28 06:31:55;;;;;;;10.52;7.13;;;;;;;24.21;74.40;94530.31;5005095;28;20228;-74
2022/07/28 06:34:22;;;;;;;9.85;6.82;;;;;;;24.04;72.78;94538.47;5007076;28;20347;-74
2022/07/28 06:36:49;;;;;;;11.65;6.95;;;;;;;24.11;72.12;94534.81;5005050;28;20201;-73
2022/07/28 06:39:16;;;;;;;11.82;7.75;;;;;;;24.54;71.96;94532.25;4999178;28;20263;-73
2022/07/28 06:41:43;;;;;;;12.40;8.52;;;;;;;24.85;69.85;94529.38;5012234;28;20204;-73
2022/07/28 06:44:10;;;;;;;11.40;9.23;;;;;;;25.48;69.79;94517.16;5017834;28;20215;-74
2022/07/28 06:46:37;;;;;;;12.32;8.77;;;;;;;25.74;67.83;94520.25;4999126;28;20233;-74
2022/07/28 06:49:05;;;;;;;10.55;6.55;;;;;;;26.31;64.05;94513.50;4999784;28;20575;-73
2022/07/28 06:51:32;;;;;;;9.95;7.75;;;;;;;27.12;63.30;94519.09;5011396;28;20251;-73
2022/07/28 06:53:59;;;;;;;11.05;7.85;;;;;;;27.93;59.41;94504.97;4999986;28;20224;-73
2022/07/28 06:56:26;;;;;;;11.23;8.07;;;;;;;28.00;60.43;94506.75;4999219;28;20205;-74
2022/07/28 06:58:53;;;;;;;8.15;7.35;;;;;;;30.25;55.85;94507.19;5004548;28;20214;-74
2022/07/28 07:01:20;;;;;;;9.45;7.88;;;;;;;30.40;50.78;94511.78;5006043;28;20259;-74
2022/07/28 07:03:46;;;;;;;8.52;7.22;;;;;;;28.38;55.78;94517.97;5000240;28;20619;-74
2022/07/28 07:06:15;;;;;;;10.55;8.65;;;;;;;27.92;55.68;94525.66;4999115;28;20556;-72
2022/07/28 07:08:41;;;;;;;11.23;8.75;;;;;;;28.10;56.04;94522.38;5004347;28;20201;-72
2022/07/28 07:11:08;;;;;;;11.00;8.65;;;;;;;28.86;54.21;94528.78;5005638;28;20682;-73
2022/07/28 07:13:35;;;;;;;9.77;8.15;;;;;;;28.59;55.21;94532.03;5001040;28;20205;-72
2022/07/28 07:16:02;;;;;;;11.13;8.43;;;;;;;28.22;55.30;94521.63;5011402;28;20241;-72
2022/07/28 07:18:29;;;;;;;11.40;9.60;;;;;;;27.95;56.36;94520.00;5012040;28;20213;-73
2022/07/28 07:20:57;;;;;;;11.80;8.82;;;;;;;27.98;56.43;94529.47;5011784;28;20209;-73
2022/07/28 07:23:25;;;;;;;11.10;8.63;;;;;;;27.62;57.83;94528.91;5011510;28;20235;-72
2022/07/28 07:25:52;;;;;;;13.23;9.82;;;;;;;26.67;59.60;94532.88;5011412;28;20216;-73
2022/07/28 07:28:19;;;;;;;13.45;9.40;;;;;;;25.48;63.06;94539.34;5007198;28;20837;-72
2022/07/28 07:30:45;;;;;;;12.02;9.85;;;;;;;25.95;62.46;94533.69;5000969;28;20862;-73
2022/07/28 07:33:12;;;;;;;13.02;9.77;;;;;;;25.25;64.45;94533.84;5007924;28;20221;-73
2022/07/28 07:35:39;;;;;;;12.82;9.60;;;;;;;24.75;64.40;94542.97;5008019;28;20209;-72
2022/07/28 07:38:06;;;;;;;13.05;9.98;;;;;;;25.28;63.45;94543.31;5011512;28;20213;-72
2022/07/28 07:40:35;;;;;;;12.75;9.75;;;;;;;25.86;62.52;94547.34;5011311;28;20212;-74
2022/07/28 07:43:02;;;;;;;13.32;9.63;;;;;;;26.01;61.47;94559.72;5013407;28;20204;-73
2022/07/28 07:45:28;;;;;;;12.90;9.02;;;;;;;26.52;61.03;94560.22;5013646;28;20201;-73
2022/07/28 07:47:55;;;;;;;12.63;9.13;;;;;;;26.85;59.25;94567.41;4999950;28;20229;-73
2022/07/28 07:50:22;;;;;;;12.07;9.07;;;;;;;26.56;58.76;94569.28;5004735;28;20572;-72
2022/07/28 07:52:49;;;;;;;11.38;9.13;;;;;;;26.30;59.41;94561.94;5001977;28;20221;-72
2022/07/28 07:55:16;;;;;;;12.65;8.80;;;;;;;26.46;58.14;94561.97;4998440;28;20227;-72
2022/07/28 07:57:44;;;;;;;11.40;8.75;;;;;;;26.58;61.32;94569.63;5011126;28;20528;-73
2022/07/28 08:00:12;;;;;;;12.13;8.55;;;;;;;26.19;60.25;94579.59;5006522;28;20202;-73
2022/07/28 08:02:39;;;;;;;13.02;8.98;;;;;;;25.38;62.22;94583.94;5004066;28;20205;-73
2022/07/28 08:05:07;;;;;;;12.93;9.18;;;;;;;25.82;61.96;94579.97;4997412;28;20283;-73
2022/07/28 08:07:34;;;;;;;12.93;9.55;;;;;;;26.51;60.94;94583.69;4998026;28;20288;-73
2022/07/28 08:10:01;;;;;;;13.18;9.88;;;;;;;27.21;57.99;94572.88;5009068;28;20518;-73
2022/07/28 08:12:28;;;;;;;11.80;8.43;;;;;;;27.56;58.64;94579.56;4997715;28;20213;-73
2022/07/28 08:14:56;;;;;;;13.00;8.75;;;;;;;27.34;56.66;94580.50;5010327;28;20277;-72
2022/07/28 08:17:23;;;;;;;11.75;8.95;;;;;;;26.78;58.18;94578.69;5010414;28;20213;-72
2022/07/28 08:19:50;;;;;;;10.43;8.40;;;;;;;26.87;58.95;94586.44;4998160;28;20205;-72
2022/07/28 08:22:17;;;;;;;14.60;9.45;;;;;;;26.57;59.16;94587.50;5010761;28;20261;-71
2022/07/28 08:24:44;;;;;;;18.10;11.23;;;;;;;26.72;58.51;94577.63;4998133;28;20209;-72
2022/07/28 08:27:10;;;;;;;11.35;9.25;;;;;;;26.77;57.85;94582.69;5011101;28;20298;-72
2022/07/28 08:29:37;;;;;;;15.75;9.80;;;;;;;26.46;59.25;94578.63;5003566;28;20206;-72
2022/07/28 08:32:06;;;;;;;15.20;9.43;;;;;;;25.92;60.24;94589.28;4998312;28;20205;-71
2022/07/28 08:34:33;;;;;;;13.25;9.77;;;;;;;24.99;63.54;94604.00;4998182;28;20252;-72
2022/07/28 08:37:01;;;;;;;13.68;9.65;;;;;;;24.72;64.28;94598.47;5010741;28;20208;-73
2022/07/28 08:39:28;;;;;;;13.90;9.95;;;;;;;24.64;64.96;94608.06;5006073;28;20201;-72
2022/07/28 08:42:01;;;;;;;13.18;10.00;;;;;;;25.19;63.51;94592.97;5010489;28;20734;-72
2022/07/28 08:44:34;;;;;;;13.70;9.05;;;;;;;24.97;63.18;94609.19;5015663;28;20196;-73
2022/07/28 08:47:01;;;;;;;12.27;9.57;;;;;;;25.69;63.35;94609.56;4997115;28;20624;-73
2022/07/28 08:49:32;;;;;;;15.02;10.13;;;;;;;25.12;62.29;94610.53;5000397;28;20288;-75
2022/07/28 08:52:00;;;;;;;11.50;9.25;;;;;;;25.38;62.06;94615.22;5003942;28;20221;-73
2022/07/28 08:54:29;;;;;;;11.73;9.45;;;;;;;25.44;61.16;94619.06;5002813;28;20201;-73
2022/07/28 08:56:57;;;;;;;17.05;9.98;;;;;;;25.85;62.15;94609.63;5010251;28;20655;-73
2022/07/28 08:59:25;;;;;;;13.45;9.90;;;;;;;26.24;59.09;94617.16;5000989;28;20668;-73
2022/07/28 09:01:53;;;;;;;13.27;9.63;;;;;;;26.67;58.08;94619.84;5008281;28;20584;-73
2022/07/28 09:04:20;;;;;;;11.30;9.40;;;;;;;26.36;58.64;94621.34;5007177;28;20247;-73
2022/07/28 09:06:48;;;;;;;13.82;10.15;;;;;;;26.02;59.64;94619.59;5001498;28;20221;-73
2022/07/28 09:09:15;;;;;;;12.50;9.90;;;;;;;25.89;59.63;94620.66;5001738;28;20201;-73
2022/07/28 09:11:42;;;;;;;12.23;9.63;;;;;;;25.97;60.54;94619.34;5013889;28;20622;-73
2022/07/28 09:14:09;;;;;;;12.23;9.43;;;;;;;26.12;62.75;94618.59;5001167;28;20209;-73
2022/07/28 09:16:36;;;;;;;12.48;9.13;;;;;;;26.55;62.55;94612.94;5007371;28;20229;-72
2022/07/28 09:19:03;;;;;;;15.75;9.88;;;;;;;26.50;61.33;94612.69;5007430;28;20336;-72
2022/07/28 09:21:30;;;;;;;15.45;10.10;;;;;;;26.34;59.06;94604.31;5001572;28;20668;-73
2022/07/28 09:24:00;;;;;;;11.90;9.82;;;;;;;25.53;61.36;94612.19;5000763;28;20238;-72
2022/07/28 09:26:27;;;;;;;13.40;10.32;;;;;;;26.49;58.16;94600.78;5013777;28;20683;-72
2022/07/28 09:28:55;;;;;;;12.32;9.07;;;;;;;27.12;58.61;94608.88;5012310;28;20201;-72
2022/07/28 09:31:24;;;;;;;17.55;10.23;;;;;;;27.10;56.65;94599.41;5001804;28;20255;-73
2022/07/28 09:33:56;;;;;;;13.80;10.15;;;;;;;26.88;56.90;94583.22;5000464;28;20268;-73
2022/07/28 09:36:23;;;;;;;13.43;10.65;;;;;;;26.83;58.01;94600.41;5011339;28;20209;-74
2022/07/28 09:38:50;;;;;;;15.80;9.75;;;;;;;27.34;57.73;94609.13;5013916;28;20484;-73
2022/07/28 09:41:20;;;;;;;13.13;10.30;;;;;;;27.46;57.04;94608.44;5013500;28;20213;-73
2022/07/28 09:43:49;;;;;;;16.83;10.38;;;;;;;27.46;56.61;94610.44;5018733;28;20772;-73
2022/07/28 09:46:17;;;;;;;16.80;11.02;;;;;;;27.49;56.67;94601.19;5013834;28;20295;-73
2022/07/28 09:48:54;;;;;;;15.27;10.93;;;;;;;26.79;58.23;94601.69;4999978;28;20241;-73
2022/07/28 09:51:24;;;;;;;14.63;11.07;;;;;;;26.56;60.01;94599.84;5013747;28;20232;-72
2022/07/28 09:53:52;;;;;;;16.63;11.50;;;;;;;27.32;57.28;94611.59;5007777;28;20252;-72
2022/07/28 09:56:22;;;;;;;20.92;12.77;;;;;;;28.46;54.51;94602.94;5006802;28;20204;-73
2022/07/28 09:58:56;;;;;;;15.23;12.32;;;;;;;27.43;56.28;94617.66;5000062;28;20736;-72
2022/07/28 10:01:23;;;;;;;15.80;11.90;;;;;;;28.18;54.74;94610.88;5011180;28;20663;-75
2022/07/28 10:03:52;;;;;;;17.25;11.63;;;;;;;28.13;55.38;94603.06;5001640;28;20298;-72
2022/07/28 10:06:25;;;;;;;16.50;12.93;;;;;;;28.38;53.93;94596.78;4999906;28;20201;-72
2022/07/28 10:08:53;;;;;;;19.45;12.93;;;;;;;29.28;51.38;94585.19;5003239;28;20236;-72
2022/07/28 10:11:25;;;;;;;16.35;12.32;;;;;;;29.74;50.69;94598.84;5005603;28;20209;-72
2022/07/28 10:13:57;;;;;;;16.20;12.25;;;;;;;30.03;49.54;94588.25;5003626;28;20228;-72
2022/07/28 10:16:26;;;;;;;14.60;10.82;;;;;;;29.65;49.50;94593.97;5013174;28;20213;-72
2022/07/28 10:18:53;;;;;;;13.52;10.30;;;;;;;29.53;50.17;94595.56;5001632;28;20276;-72
2022/07/28 10:21:22;;;;;;;14.18;8.80;;;;;;;28.72;48.87;94593.34;5006360;28;20252;-72
2022/07/28 10:23:51;;;;;;;9.05;7.22;;;;;;;28.35;47.88;94596.88;5004981;28;20556;-72
2022/07/28 10:26:24;;;;;;;10.70;8.15;;;;;;;28.23;49.61;94590.84;4999673;28;20237;-73
2022/07/28 10:28:54;;;;;;;11.88;9.02;;;;;;;28.29;50.32;94589.06;5012542;28;20217;-72
2022/07/28 10:31:41;;;;;;;11.35;8.60;;;;;;;29.23;48.52;94585.00;5000141;28;20694;-73
2022/07/28 10:34:14;;;;;;;8.00;6.32;;;;;;;29.52;45.14;94585.63;5012790;28;20275;-73
2022/07/28 10:36:43;;;;;;;9.60;7.03;;;;;;;29.14;45.84;94580.09;5013064;28;20247;-72
2022/07/28 10:39:13;;;;;;;14.50;10.73;;;;;;;28.79;51.41;94581.25;5012399;28;20805;-74
2022/07/28 10:41:42;;;;;;;12.73;8.85;;;;;;;29.21;52.16;94579.09;5013131;28;20204;-74
2022/07/28 10:44:12;;;;;;;15.38;11.07;;;;;;;29.23;52.12;94573.84;5017188;28;20263;-74
2022/07/28 10:46:42;;;;;;;16.45;9.75;;;;;;;29.40;51.71;94580.84;5012183;28;20207;-71
2022/07/28 10:49:09;;;;;;;15.90;10.45;;;;;;;29.44;53.49;94575.16;4999861;28;20205;-75
2022/07/28 10:51:37;;;;;;;14.38;10.40;;;;;;;28.77;50.98;94573.28;4999119;28;20691;-74
2022/07/28 10:54:09;;;;;;;14.43;10.38;;;;;;;28.49;51.78;94574.16;5004773;28;20202;-73
2022/07/28 10:56:46;;;;;;;10.98;9.18;;;;;;;28.40;51.17;94574.06;5006274;28;20201;-72
2022/07/28 10:59:45;;;;;;;10.82;8.57;;;;;;;28.58;49.79;94558.34;5003112;28;20201;-73
2022/07/28 11:02:46;;;;;;;12.43;9.05;;;;;;;28.76;49.64;94555.00;5001077;28;20654;-74
2022/07/28 11:05:31;;;;;;;12.43;8.65;;;;;;;29.56;50.19;94558.34;4999155;28;20236;-73
2022/07/28 11:08:00;;;;;;;11.60;9.25;;;;;;;29.90;49.44;94545.59;5009960;28;20283;-73
2022/07/28 11:10:28;;;;;;;10.50;8.38;;;;;;;30.28;47.92;94543.41;5001994;28;20203;-74
2022/07/28 11:12:59;;;;;;;10.68;8.65;;;;;;;30.63;48.37;94543.28;4998751;28;20208;-73
2022/07/28 11:15:33;;;;;;;12.45;9.50;;;;;;;30.86;45.73;94537.16;5001583;28;20233;-74
2022/07/28 11:18:03;;;;;;;11.20;9.13;;;;;;;31.64;45.16;94533.94;5010029;28;20213;-72
2022/07/28 11:21:19;;;;;;;12.00;8.52;;;;;;;32.11;42.99;94527.06;5011551;28;20193;-74
2022/07/28 11:23:57;;;;;;;11.45;8.75;;;;;;;31.32;43.67;94528.91;5004228;28;20211;-74
2022/07/28 11:26:44;;;;;;;13.35;9.00;;;;;;;31.28;44.13;94522.69;4999330;28;20208;-75
2022/07/28 11:29:22;;;;;;;9.18;7.68;;;;;;;31.11;43.72;94507.41;5008216;28;20248;-74
2022/07/28 11:32:00;;;;;;;8.93;6.95;;;;;;;30.36;45.74;94513.91;5004022;28;20245;-74
2022/07/28 11:34:27;;;;;;;10.07;7.90;;;;;;;30.75;43.18;94508.84;4998408;28;20671;-73
2022/07/28 11:37:03;;;;;;;9.93;7.10;;;;;;;30.87;42.96;94510.75;5011847;28;20209;-71